createdAt,value
2022-09-28T00:00:21.837Z,96612.31
2022-09-28T00:03:23.605Z,96614.94
2022-09-28T00:06:27.098Z,96616.88
2022-09-28T00:09:28.943Z,96618.06
2022-09-28T00:12:31.802Z,96612.81
2022-09-28T00:15:33.875Z,96614.13
2022-09-28T00:18:36.402Z,96618.97
2022-09-28T00:21:39.980Z,96627.19
2022-09-28T00:24:41.801Z,96630.13
2022-09-28T00:27:44.115Z,96631.44
2022-09-28T00:30:46.313Z,96618.41
2022-09-28T00:33:53.452Z,96617.09
2022-09-28T00:36:55.281Z,96614.97
2022-09-28T00:39:57.123Z,96613.47
2022-09-28T00:42:59.388Z,96601.75
2022-09-28T00:46:10.962Z,96606.66
2022-09-28T00:49:16.299Z,96614.00
2022-09-28T00:52:55.148Z,96607.31
2022-09-28T00:56:07.590Z,96600.75
2022-09-28T00:59:09.687Z,96603.69
2022-09-28T01:02:12.422Z,96607.94
2022-09-28T01:05:15.069Z,96617.28
2022-09-28T01:08:18.281Z,96625.59
2022-09-28T01:11:20.364Z,96627.88
2022-09-28T01:14:25.871Z,96633.06
2022-09-28T01:17:45.084Z,96636.31
2022-09-28T01:21:11.160Z,96632.06
2022-09-28T01:24:13.013Z,96634.06
2022-09-28T01:27:29.940Z,96631.28
2022-09-28T01:30:37.652Z,96628.84
2022-09-28T01:33:52.248Z,96633.75
2022-09-28T01:36:56.834Z,96636.00
2022-09-28T01:39:59.069Z,96625.88
2022-09-28T01:43:11.669Z,96634.69
2022-09-28T01:46:20.830Z,96635.38
2022-09-28T01:49:27.667Z,96643.53
2022-09-28T01:52:41.895Z,96634.03
2022-09-28T01:55:48.190Z,96642.50
2022-09-28T01:58:59.618Z,96643.19
2022-09-28T02:02:08.418Z,96649.03
2022-09-28T02:05:22.464Z,96639.25
2022-09-28T02:08:34.523Z,96640.09
2022-09-28T02:11:38.487Z,96640.94
2022-09-28T02:14:41.953Z,96644.50
2022-09-28T02:17:43.896Z,96644.50
2022-09-28T02:20:53.337Z,96643.00
2022-09-28T02:24:03.360Z,96644.00
2022-09-28T02:27:16.443Z,96653.25
2022-09-28T02:30:18.442Z,96645.28
2022-09-28T02:33:23.789Z,96645.44
2022-09-28T02:36:26.810Z,96637.97
2022-09-28T02:39:28.989Z,96642.13
2022-09-28T02:42:40.336Z,96638.91
2022-09-28T02:46:06.873Z,96644.78
2022-09-28T02:50:00.315Z,96642.94
2022-09-28T02:53:17.137Z,96647.03
2022-09-28T02:56:41.228Z,96646.44
2022-09-28T03:00:05.722Z,96659.66
2022-09-28T03:03:19.293Z,96658.13
2022-09-28T03:06:46.480Z,96663.84
2022-09-28T03:09:59.527Z,96665.31
2022-09-28T03:13:02.996Z,96663.81
2022-09-28T03:16:08.163Z,96664.59
2022-09-28T03:19:12.791Z,96656.41
2022-09-28T03:22:14.456Z,96659.31
2022-09-28T03:25:16.491Z,96669.13
2022-09-28T03:28:21.496Z,96675.34
2022-09-28T03:31:24.585Z,96669.13
2022-09-28T03:34:26.794Z,96679.53
2022-09-28T03:37:29.110Z,96670.38
2022-09-28T03:40:31.491Z,96671.59
2022-09-28T03:43:33.431Z,96674.56
2022-09-28T03:46:37.707Z,96681.09
2022-09-28T03:49:43.886Z,96686.50
2022-09-28T03:52:46.242Z,96688.59
2022-09-28T03:55:48.827Z,96691.78
2022-09-28T03:58:50.609Z,96686.94
2022-09-28T04:01:52.951Z,96686.44
2022-09-28T04:04:57.259Z,96685.31
2022-09-28T04:07:59.498Z,96689.75
2022-09-28T04:11:02.669Z,96691.53
2022-09-28T04:14:04.869Z,96686.63
2022-09-28T04:17:07.472Z,96682.72
2022-09-28T04:20:10.014Z,96668.94
2022-09-28T04:23:16.015Z,96677.28
2022-09-28T04:26:24.300Z,96675.97
2022-09-28T04:29:26.393Z,96658.88
2022-09-28T04:32:31.066Z,96660.56
2022-09-28T04:35:33.613Z,96666.72
2022-09-28T04:38:52.237Z,96670.19
2022-09-28T04:41:56.613Z,96660.09
2022-09-28T04:45:00.098Z,96666.63
2022-09-28T04:48:07.799Z,96660.13
2022-09-28T04:51:40.155Z,96655.25
2022-09-28T04:54:43.795Z,96644.31
2022-09-28T04:57:46.013Z,96663.06
2022-09-28T05:00:50.304Z,96674.50
2022-09-28T05:04:12.278Z,96680.53
2022-09-28T05:07:37.472Z,96667.66
2022-09-28T05:10:44.438Z,96687.75
2022-09-28T05:13:46.486Z,96697.03
2022-09-28T05:16:51.510Z,96698.66
2022-09-28T05:20:04.015Z,96695.06
2022-09-28T05:23:09.880Z,96690.19
2022-09-28T05:26:12.724Z,96688.88
2022-09-28T05:29:14.782Z,96684.97
2022-09-28T05:32:35.881Z,96687.59
2022-09-28T05:35:52.515Z,96673.69
2022-09-28T05:38:57.005Z,96673.88
2022-09-28T05:42:00.106Z,96666.38
2022-09-28T05:45:07.876Z,96654.63
2022-09-28T05:48:11.281Z,96670.28
2022-09-28T05:51:13.804Z,96658.50
2022-09-28T05:54:20.243Z,96664.56
2022-09-28T05:57:26.495Z,96671.91
2022-09-28T06:00:30.004Z,96663.50
2022-09-28T06:03:32.821Z,96665.31
2022-09-28T06:06:36.810Z,96663.69
2022-09-28T06:09:39.209Z,96653.25
2022-09-28T06:12:55.635Z,96649.69
2022-09-28T06:15:57.970Z,96641.47
2022-09-28T06:19:02.304Z,96642.06
2022-09-28T06:22:13.821Z,96636.13
2022-09-28T06:25:30.378Z,96632.09
2022-09-28T06:28:33.516Z,96634.13
2022-09-28T06:31:35.735Z,96637.34
2022-09-28T06:34:38.562Z,96630.91
2022-09-28T06:37:41.437Z,96630.41
2022-09-28T06:40:43.510Z,96628.06
2022-09-28T06:43:48.147Z,96635.97
2022-09-28T06:47:08.782Z,96625.88
2022-09-28T06:50:33.116Z,96630.56
2022-09-28T06:54:00.983Z,96625.34
2022-09-28T06:57:14.282Z,96626.03
2022-09-28T07:00:17.966Z,96621.91
2022-09-28T07:03:23.099Z,96619.63
2022-09-28T07:06:51.411Z,96607.88
2022-09-28T07:10:13.322Z,96606.19
2022-09-28T07:13:49.458Z,96616.25
2022-09-28T07:17:12.450Z,96625.84
2022-09-28T07:20:20.504Z,96611.75
2022-09-28T07:23:30.965Z,96617.59
2022-09-28T07:27:06.266Z,96618.44
2022-09-28T07:30:34.378Z,96619.25
2022-09-28T07:33:56.466Z,96630.88
2022-09-28T07:37:05.383Z,96627.28
2022-09-28T07:40:28.111Z,96635.06
2022-09-28T07:43:30.463Z,96627.28
2022-09-28T07:46:38.186Z,96639.31
2022-09-28T07:49:46.915Z,96645.41
2022-09-28T07:52:52.272Z,96660.78
2022-09-28T07:56:09.243Z,96651.69
2022-09-28T07:59:32.179Z,96654.16
2022-09-28T08:03:13.849Z,96656.81
2022-09-28T08:06:17.422Z,96656.94
2022-09-28T08:09:20.102Z,96662.81
2022-09-28T08:12:41.586Z,96649.09
2022-09-28T08:16:07.689Z,96649.88
2022-09-28T08:19:15.435Z,96640.72
2022-09-28T08:22:19.406Z,96640.13
2022-09-28T08:25:24.945Z,96640.19
2022-09-28T08:28:27.375Z,96644.84
2022-09-28T08:31:33.248Z,96642.72
2022-09-28T08:34:49.110Z,96637.50
2022-09-28T08:37:59.501Z,96634.53
2022-09-28T08:41:41.439Z,96633.31
2022-09-28T08:44:58.127Z,96623.38
2022-09-28T08:48:42.034Z,96612.97
2022-09-28T08:52:15.201Z,96605.88
2022-09-28T08:55:36.678Z,96606.03
2022-09-28T08:58:44.216Z,96610.22
2022-09-28T09:02:03.684Z,96606.91
2022-09-28T09:05:15.448Z,96596.22
2022-09-28T09:08:38.135Z,96594.53
2022-09-28T09:12:02.050Z,96593.22
2022-09-28T09:15:34.061Z,96588.38
2022-09-28T09:18:41.863Z,96584.06
2022-09-28T09:22:18.842Z,96587.69
2022-09-28T09:25:39.774Z,96589.34
2022-09-28T09:29:22.795Z,96580.88
2022-09-28T09:32:43.963Z,96580.28
2022-09-28T09:35:47.031Z,96581.84
2022-09-28T09:39:29.368Z,96565.72
2022-09-28T09:43:01.748Z,96578.59
2022-09-28T09:46:24.541Z,96566.63
2022-09-28T09:50:12.031Z,96572.13
2022-09-28T09:53:38.226Z,96565.31
2022-09-28T09:57:07.121Z,96565.53
2022-09-28T10:00:33.199Z,96553.22
2022-09-28T10:03:48.999Z,96557.91
2022-09-28T10:07:02.187Z,96549.91
2022-09-28T10:10:11.175Z,96545.22
2022-09-28T10:13:33.535Z,96535.78
2022-09-28T10:16:39.143Z,96534.19
2022-09-28T10:19:47.099Z,96529.31
2022-09-28T10:23:17.772Z,96522.19
2022-09-28T10:26:25.446Z,96530.66
2022-09-28T10:29:30.536Z,96522.34
2022-09-28T10:32:50.393Z,96517.69
2022-09-28T10:36:07.454Z,96508.22
2022-09-28T10:39:50.844Z,96518.09
2022-09-28T10:43:00.575Z,96514.47
2022-09-28T10:46:07.166Z,96503.78
2022-09-28T10:49:17.184Z,96499.16
2022-09-28T10:52:34.585Z,96497.16
2022-09-28T10:55:37.235Z,96493.38
2022-09-28T10:58:42.488Z,96494.53
2022-09-28T11:02:02.918Z,96490.34
2022-09-28T11:05:07.252Z,96485.84
2022-09-28T11:08:26.109Z,96471.34
2022-09-28T11:11:31.813Z,96468.22
2022-09-28T11:14:44.563Z,96456.59
2022-09-28T11:17:53.014Z,96449.88
2022-09-28T11:21:11.701Z,96446.72
2022-09-28T11:24:25.271Z,96458.88
2022-09-28T11:27:31.292Z,96447.09
2022-09-28T11:30:48.564Z,96442.97
2022-09-28T11:34:58.717Z,96435.25
2022-09-28T11:38:17.673Z,96440.91
2022-09-28T11:41:41.099Z,96447.09
2022-09-28T11:44:49.673Z,96436.00
2022-09-28T11:47:58.129Z,96439.13
2022-09-28T11:51:09.721Z,96440.69
2022-09-28T11:54:34.195Z,96423.69
2022-09-28T11:57:39.349Z,96426.25
2022-09-28T12:00:47.488Z,96419.97
2022-09-28T12:04:01.409Z,96417.41
2022-09-28T12:07:09.438Z,96418.16
2022-09-28T12:10:22.958Z,96412.59
2022-09-28T12:13:28.083Z,96409.31
2022-09-28T12:17:05.344Z,96402.84
2022-09-28T12:20:31.371Z,96394.84
2022-09-28T12:23:37.714Z,96388.88
2022-09-28T12:26:44.063Z,96393.09
2022-09-28T12:30:21.124Z,96395.09
2022-09-28T12:33:23.390Z,96396.09
2022-09-28T12:36:48.022Z,96403.22
2022-09-28T12:40:20.407Z,96397.13
2022-09-28T12:43:33.718Z,96391.59
2022-09-28T12:46:42.505Z,96385.88
2022-09-28T12:50:37.466Z,96381.41
2022-09-28T12:53:27.629Z,96386.13
2022-09-28T12:56:42.644Z,96390.41
2022-09-28T13:00:03.242Z,96389.19
2022-09-28T13:03:08.495Z,96402.09
2022-09-28T13:06:47.612Z,96399.34
2022-09-28T13:10:14.127Z,96408.63
2022-09-28T13:13:45.248Z,96409.69
2022-09-28T13:17:00.632Z,96416.69
2022-09-28T13:20:20.440Z,96423.38
2022-09-28T13:23:35.924Z,96431.31
2022-09-28T13:26:41.674Z,96438.72
2022-09-28T13:29:44.137Z,96429.22
2022-09-28T13:32:49.400Z,96431.34
2022-09-28T13:35:52.112Z,96424.59
2022-09-28T13:39:04.720Z,96429.84
2022-09-28T13:42:08.543Z,96418.75
2022-09-28T13:45:14.043Z,96426.34
2022-09-28T13:48:54.080Z,96419.03
2022-09-28T13:52:15.245Z,96417.97
2022-09-28T13:55:39.563Z,96407.50
2022-09-28T13:58:48.321Z,96403.28
2022-09-28T14:02:25.994Z,96412.97
2022-09-28T14:05:46.839Z,96420.44
2022-09-28T14:09:07.386Z,96422.56
2022-09-28T14:12:38.969Z,96421.41
2022-09-28T14:15:45.314Z,96425.25
2022-09-28T14:19:07.521Z,96435.41
2022-09-28T14:22:37.707Z,96444.16
2022-09-28T14:25:45.603Z,96434.78
2022-09-28T14:28:57.607Z,96438.22
2022-09-28T14:32:06.313Z,96433.59
2022-09-28T14:35:36.971Z,96431.81
2022-09-28T14:39:05.578Z,96434.59
2022-09-28T14:42:10.875Z,96434.81
2022-09-28T14:45:12.946Z,96439.66
2022-09-28T14:48:20.059Z,96436.94
2022-09-28T14:51:26.878Z,96434.06
2022-09-28T14:54:49.836Z,96418.56
2022-09-28T14:57:55.606Z,96406.69
2022-09-28T15:01:03.195Z,96427.22
2022-09-28T15:04:08.877Z,96442.63
2022-09-28T15:07:19.937Z,96422.38
2022-09-28T15:10:28.561Z,96430.31
2022-09-28T15:13:30.938Z,96427.09
2022-09-28T15:16:34.543Z,96430.63
2022-09-28T15:19:57.557Z,96430.47
2022-09-28T15:23:00.404Z,96439.28
2022-09-28T15:26:04.695Z,96445.31
2022-09-28T15:29:17.729Z,96442.16
2022-09-28T15:32:24.509Z,96446.91
2022-09-28T15:35:28.636Z,96444.69
2022-09-28T15:38:34.469Z,96443.13
2022-09-28T15:41:37.312Z,96439.13
2022-09-28T15:44:40.123Z,96444.09
2022-09-28T15:47:46.113Z,96440.03
2022-09-28T15:51:06.261Z,96452.00
2022-09-28T15:54:19.740Z,96465.25
2022-09-28T15:57:37.099Z,96460.97
2022-09-28T16:00:40.493Z,96456.31
2022-09-28T16:03:42.759Z,96464.88
2022-09-28T16:06:44.936Z,96464.13
2022-09-28T16:09:59.002Z,96471.22
2022-09-28T16:13:17.506Z,96470.22
2022-09-28T16:16:46.706Z,96471.06
2022-09-28T16:19:49.411Z,96461.72
2022-09-28T16:22:53.847Z,96473.50
2022-09-28T16:26:00.634Z,96469.81
2022-09-28T16:29:43.070Z,96478.41
2022-09-28T16:32:54.991Z,96471.53
2022-09-28T16:36:05.925Z,96471.53
2022-09-28T16:39:08.637Z,96474.19
2022-09-28T16:42:12.061Z,96480.44
2022-09-28T16:45:23.582Z,96481.47
2022-09-28T16:48:28.216Z,96469.75
2022-09-28T16:51:31.041Z,96474.41
2022-09-28T16:54:51.660Z,96467.13
2022-09-28T16:57:54.350Z,96476.50
2022-09-28T17:00:56.912Z,96487.84
2022-09-28T17:03:59.509Z,96498.41
2022-09-28T17:07:02.113Z,96500.00
2022-09-28T17:10:12.783Z,96491.31
2022-09-28T17:13:15.958Z,96494.53
2022-09-28T17:16:42.675Z,96497.16
2022-09-28T17:19:45.830Z,96484.56
2022-09-28T17:22:48.301Z,96485.38
2022-09-28T17:25:50.952Z,96487.06
2022-09-28T17:28:54.307Z,96478.94
2022-09-28T17:31:58.202Z,96480.94
2022-09-28T17:35:23.065Z,96485.00
2022-09-28T17:38:22.955Z,96483.19
2022-09-28T17:41:25.369Z,96479.34
2022-09-28T17:44:27.760Z,96479.34
2022-09-28T17:47:34.321Z,96474.47
2022-09-28T17:50:46.387Z,96477.91
2022-09-28T17:53:49.977Z,96484.63
2022-09-28T17:56:53.748Z,96480.97
2022-09-28T17:59:56.626Z,96478.97
2022-09-28T18:02:59.583Z,96475.94
2022-09-28T18:06:08.273Z,96478.59
2022-09-28T18:09:15.158Z,96476.53
2022-09-28T18:12:18.104Z,96471.88
2022-09-28T18:15:20.954Z,96482.81
2022-09-28T18:18:25.771Z,96482.63
2022-09-28T18:21:31.983Z,96479.59
2022-09-28T18:24:34.563Z,96483.44
2022-09-28T18:27:38.315Z,96486.88
2022-09-28T18:30:42.810Z,96481.81
2022-09-28T18:33:46.233Z,96489.16
2022-09-28T18:36:49.270Z,96492.81
2022-09-28T18:39:51.557Z,96484.94
2022-09-28T18:42:53.765Z,96487.16
2022-09-28T18:45:56.873Z,96489.41
2022-09-28T18:48:59.628Z,96488.19
2022-09-28T18:52:03.363Z,96491.63
2022-09-28T18:55:08.542Z,96492.66
2022-09-28T18:58:13.229Z,96500.56
2022-09-28T19:01:29.973Z,96504.63
2022-09-28T19:04:33.817Z,96512.94
2022-09-28T19:07:36.451Z,96508.66
2022-09-28T19:10:38.965Z,96510.69
2022-09-28T19:13:41.107Z,96514.34
2022-09-28T19:16:44.718Z,96506.63
2022-09-28T19:19:47.585Z,96510.91
2022-09-28T19:22:50.809Z,96519.19
2022-09-28T19:25:53.173Z,96509.91
2022-09-28T19:28:58.600Z,96505.03
2022-09-28T19:32:01.448Z,96502.97
2022-09-28T19:35:04.547Z,96497.94
2022-09-28T19:38:07.016Z,96502.78
2022-09-28T19:41:13.796Z,96507.63
2022-09-28T19:44:27.946Z,96504.59
2022-09-28T19:47:30.408Z,96501.38
2022-09-28T19:50:32.410Z,96500.56
2022-09-28T19:53:37.007Z,96506.81
2022-09-28T19:56:38.934Z,96504.59
2022-09-28T19:59:40.953Z,96501.75
2022-09-28T20:02:43.579Z,96501.31
2022-09-28T20:05:48.087Z,96499.66
2022-09-28T20:08:51.212Z,96498.31
2022-09-28T20:11:53.326Z,96500.09
2022-09-28T20:14:55.390Z,96506.22
2022-09-28T20:17:58.952Z,96507.44
2022-09-28T20:21:06.286Z,96503.19
2022-09-28T20:24:10.924Z,96499.13
2022-09-28T20:27:13.212Z,96495.06
2022-09-28T20:30:15.376Z,96507.03
2022-09-28T20:33:27.494Z,96505.63
2022-09-28T20:36:34.204Z,96493.25
2022-09-28T20:39:36.188Z,96490.41
2022-09-28T20:42:38.368Z,96496.28
2022-09-28T20:45:40.498Z,96500.97
2022-09-28T20:48:42.457Z,96499.31
2022-09-28T20:51:45.258Z,96508.25
2022-09-28T20:54:47.619Z,96509.84
2022-09-28T20:57:51.029Z,96513.72
2022-09-28T21:00:53.184Z,96514.31
2022-09-28T21:04:01.133Z,96508.63
2022-09-28T21:07:03.047Z,96512.47
2022-09-28T21:10:05.994Z,96512.69
2022-09-28T21:13:08.939Z,96520.38
2022-09-28T21:16:12.662Z,96519.66
2022-09-28T21:19:14.917Z,96514.63
2022-09-28T21:22:16.672Z,96512.66
2022-09-28T21:25:19.062Z,96503.34
2022-09-28T21:28:21.290Z,96501.91
2022-09-28T21:31:28.488Z,96498.09
2022-09-28T21:34:31.377Z,96497.28
2022-09-28T21:37:33.595Z,96486.34
2022-09-28T21:40:36.236Z,96511.88
2022-09-28T21:43:39.451Z,96507.44
2022-09-28T21:46:42.446Z,96505.22
2022-09-28T21:49:44.296Z,96507.63
2022-09-28T21:52:46.715Z,96517.75
2022-09-28T21:55:53.192Z,96518.78
2022-09-28T21:58:55.463Z,96529.53
2022-09-28T22:01:57.325Z,96519.97
2022-09-28T22:04:59.399Z,96520.63
2022-09-28T22:08:02.006Z,96531.78
2022-09-28T22:11:08.409Z,96531.78
2022-09-28T22:14:11.017Z,96536.41
2022-09-28T22:17:12.754Z,96545.53
2022-09-28T22:20:15.047Z,96543.50
2022-09-28T22:23:17.699Z,96543.91
2022-09-28T22:26:23.559Z,96544.31
2022-09-28T22:29:26.437Z,96535.78
2022-09-28T22:32:28.225Z,96532.56
2022-09-28T22:35:30.589Z,96535.00
2022-09-28T22:38:32.847Z,96538.66
2022-09-28T22:41:35.561Z,96525.66
2022-09-28T22:44:48.262Z,96530.53
2022-09-28T22:47:50.566Z,96537.22
2022-09-28T22:50:52.390Z,96541.81
2022-09-28T22:53:54.973Z,96540.78
2022-09-28T22:56:56.726Z,96541.19
2022-09-28T22:59:58.520Z,96536.06
2022-09-28T23:03:00.304Z,96537.09
2022-09-28T23:06:02.341Z,96544.34
2022-09-28T23:09:04.861Z,96537.47
2022-09-28T23:12:06.818Z,96543.28
2022-09-28T23:15:09.411Z,96535.97
2022-09-28T23:18:11.715Z,96536.78
2022-09-28T23:21:15.590Z,96537.75
2022-09-28T23:24:18.039Z,96539.56
2022-09-28T23:27:20.583Z,96547.94
2022-09-28T23:30:24.986Z,96545.31
2022-09-28T23:33:27.370Z,96549.88
2022-09-28T23:36:29.055Z,96546.97
2022-09-28T23:39:31.409Z,96558.75
2022-09-28T23:42:34.772Z,96560.78
2022-09-28T23:45:37.216Z,96563.72
2022-09-28T23:48:39.017Z,96570.31
2022-09-28T23:51:40.751Z,96572.72
2022-09-28T23:54:42.819Z,96581.59
2022-09-28T23:57:44.709Z,96581.59
